sensor_id;sensor_type;location;lat;lon;timestamp;temperature;humidity
43047;DHT22;28672;49.358;8.780;2022-09-13T00:00:39;13.30;99.90
43047;DHT22;28672;49.358;8.780;2022-09-13T00:03:06;13.20;99.90
43047;DHT22;28672;49.358;8.780;2022-09-13T00:05:31;13.20;99.90
43047;DHT22;28672;49.358;8.780;2022-09-13T00:07:57;13.20;99.90
43047;DHT22;28672;49.358;8.780;2022-09-13T00:10:23;13.10;99.90
43047;DHT22;28672;49.358;8.780;2022-09-13T00:12:49;13.10;99.90
43047;DHT22;28672;49.358;8.780;2022-09-13T00:15:15;13.10;99.90
43047;DHT22;28672;49.358;8.780;2022-09-13T00:17:41;13.20;99.90
43047;DHT22;28672;49.358;8.780;2022-09-13T00:20:07;13.20;99.90
43047;DHT22;28672;49.358;8.780;2022-09-13T00:22:34;13.20;99.90
43047;DHT22;28672;49.358;8.780;2022-09-13T00:24:59;13.20;99.90
43047;DHT22;28672;49.358;8.780;2022-09-13T00:27:25;13.20;99.90
43047;DHT22;28672;49.358;8.780;2022-09-13T00:29:51;13.10;99.90
43047;DHT22;28672;49.358;8.780;2022-09-13T00:32:16;13.10;99.90
43047;DHT22;28672;49.358;8.780;2022-09-13T00:34:42;13.10;99.90
43047;DHT22;28672;49.358;8.780;2022-09-13T00:37:07;13.10;99.90
43047;DHT22;28672;49.358;8.780;2022-09-13T00:39:33;13.10;99.90
43047;DHT22;28672;49.358;8.780;2022-09-13T00:41:59;13.10;99.90
43047;DHT22;28672;49.358;8.780;2022-09-13T00:44:54;13.10;99.90
43047;DHT22;28672;49.358;8.780;2022-09-13T00:49:58;13.00;99.90
43047;DHT22;28672;49.358;8.780;2022-09-13T00:52:28;13.00;99.90
43047;DHT22;28672;49.358;8.780;2022-09-13T00:55:10;12.90;99.90
43047;DHT22;28672;49.358;8.780;2022-09-13T00:57:38;12.80;99.90
43047;DHT22;28672;49.358;8.780;2022-09-13T01:00:09;12.80;99.90
43047;DHT22;28672;49.358;8.780;2022-09-13T01:02:40;12.80;99.90
43047;DHT22;28672;49.358;8.780;2022-09-13T01:05:06;12.90;99.90
43047;DHT22;28672;49.358;8.780;2022-09-13T01:07:32;12.90;99.90
43047;DHT22;28672;49.358;8.780;2022-09-13T01:09:59;12.90;99.90
43047;DHT22;28672;49.358;8.780;2022-09-13T01:15:00;12.90;99.90
43047;DHT22;28672;49.358;8.780;2022-09-13T01:17:27;12.90;99.90
43047;DHT22;28672;49.358;8.780;2022-09-13T01:19:54;12.90;99.90
43047;DHT22;28672;49.358;8.780;2022-09-13T01:22:50;12.90;99.90
43047;DHT22;28672;49.358;8.780;2022-09-13T01:28:29;12.90;99.90
43047;DHT22;28672;49.358;8.780;2022-09-13T01:31:19;12.80;99.90
43047;DHT22;28672;49.358;8.780;2022-09-13T01:34:03;12.80;99.90
43047;DHT22;28672;49.358;8.780;2022-09-13T01:39:38;12.80;99.90
43047;DHT22;28672;49.358;8.780;2022-09-13T01:42:41;12.70;99.90
43047;DHT22;28672;49.358;8.780;2022-09-13T01:45:22;12.70;99.90
43047;DHT22;28672;49.358;8.780;2022-09-13T01:50:36;12.70;99.90
43047;DHT22;28672;49.358;8.780;2022-09-13T02:01:22;12.60;99.90
43047;DHT22;28672;49.358;8.780;2022-09-13T02:04:08;12.60;99.90
43047;DHT22;28672;49.358;8.780;2022-09-13T02:07:36;12.60;99.90
43047;DHT22;28672;49.358;8.780;2022-09-13T02:09:47;12.60;99.90
43047;DHT22;28672;49.358;8.780;2022-09-13T02:12:20;12.50;99.90
43047;DHT22;28672;49.358;8.780;2022-09-13T02:14:58;12.50;99.90
43047;DHT22;28672;49.358;8.780;2022-09-13T02:17:28;12.40;99.90
43047;DHT22;28672;49.358;8.780;2022-09-13T02:20:11;12.40;99.90
43047;DHT22;28672;49.358;8.780;2022-09-13T02:22:42;12.40;99.90
43047;DHT22;28672;49.358;8.780;2022-09-13T02:25:13;12.40;99.90
43047;DHT22;28672;49.358;8.780;2022-09-13T02:27:44;12.30;99.90
43047;DHT22;28672;49.358;8.780;2022-09-13T02:30:12;12.30;99.90
43047;DHT22;28672;49.358;8.780;2022-09-13T02:32:57;12.40;99.90
43047;DHT22;28672;49.358;8.780;2022-09-13T02:35:30;12.40;99.90
43047;DHT22;28672;49.358;8.780;2022-09-13T02:38:16;12.30;99.90
43047;DHT22;28672;49.358;8.780;2022-09-13T02:40:48;12.30;99.90
43047;DHT22;28672;49.358;8.780;2022-09-13T02:43:26;12.30;99.90
43047;DHT22;28672;49.358;8.780;2022-09-13T02:51:44;12.10;99.90
43047;DHT22;28672;49.358;8.780;2022-09-13T02:57:00;12.10;99.90
43047;DHT22;28672;49.358;8.780;2022-09-13T02:59:29;12.00;99.90
43047;DHT22;28672;49.358;8.780;2022-09-13T03:01:59;12.10;99.90
43047;DHT22;28672;49.358;8.780;2022-09-13T03:04:27;12.10;99.90
43047;DHT22;28672;49.358;8.780;2022-09-13T03:06:53;12.10;99.90
43047;DHT22;28672;49.358;8.780;2022-09-13T03:09:18;12.00;99.90
43047;DHT22;28672;49.358;8.780;2022-09-13T03:23:08;12.00;99.90
43047;DHT22;28672;49.358;8.780;2022-09-13T03:25:42;12.00;99.90
43047;DHT22;28672;49.358;8.780;2022-09-13T03:31:20;12.00;99.90
43047;DHT22;28672;49.358;8.780;2022-09-13T03:33:58;12.10;99.90
43047;DHT22;28672;49.358;8.780;2022-09-13T03:36:34;12.00;99.90
43047;DHT22;28672;49.358;8.780;2022-09-13T03:39:06;12.00;99.90
43047;DHT22;28672;49.358;8.780;2022-09-13T03:41:39;12.00;99.90
43047;DHT22;28672;49.358;8.780;2022-09-13T03:44:10;12.00;99.90
43047;DHT22;28672;49.358;8.780;2022-09-13T03:46:41;12.00;99.90
43047;DHT22;28672;49.358;8.780;2022-09-13T03:49:14;12.00;99.90
43047;DHT22;28672;49.358;8.780;2022-09-13T03:51:42;12.00;99.90
43047;DHT22;28672;49.358;8.780;2022-09-13T03:54:14;12.00;99.90
43047;DHT22;28672;49.358;8.780;2022-09-13T03:56:41;12.10;99.90
43047;DHT22;28672;49.358;8.780;2022-09-13T03:59:06;12.00;99.90
43047;DHT22;28672;49.358;8.780;2022-09-13T04:01:32;12.10;99.90
43047;DHT22;28672;49.358;8.780;2022-09-13T04:03:57;12.10;99.90
43047;DHT22;28672;49.358;8.780;2022-09-13T04:06:23;12.10;99.90
43047;DHT22;28672;49.358;8.780;2022-09-13T04:08:49;12.10;99.90
43047;DHT22;28672;49.358;8.780;2022-09-13T04:11:14;12.00;99.90
43047;DHT22;28672;49.358;8.780;2022-09-13T04:13:40;12.00;99.90
43047;DHT22;28672;49.358;8.780;2022-09-13T04:16:06;12.00;99.90
43047;DHT22;28672;49.358;8.780;2022-09-13T04:18:32;12.00;99.90
43047;DHT22;28672;49.358;8.780;2022-09-13T04:20:59;12.10;99.90
43047;DHT22;28672;49.358;8.780;2022-09-13T04:23:26;12.10;99.90
43047;DHT22;28672;49.358;8.780;2022-09-13T04:25:53;12.10;99.90
43047;DHT22;28672;49.358;8.780;2022-09-13T04:28:19;12.10;99.90
43047;DHT22;28672;49.358;8.780;2022-09-13T04:30:46;12.10;99.90
43047;DHT22;28672;49.358;8.780;2022-09-13T04:33:13;12.10;99.90
43047;DHT22;28672;49.358;8.780;2022-09-13T04:35:39;12.20;99.90
43047;DHT22;28672;49.358;8.780;2022-09-13T04:38:05;12.20;99.90
43047;DHT22;28672;49.358;8.780;2022-09-13T04:40:31;12.20;99.90
43047;DHT22;28672;49.358;8.780;2022-09-13T04:42:56;12.20;99.90
43047;DHT22;28672;49.358;8.780;2022-09-13T04:45:23;12.20;99.90
43047;DHT22;28672;49.358;8.780;2022-09-13T04:47:53;12.20;99.90
43047;DHT22;28672;49.358;8.780;2022-09-13T04:50:22;12.20;99.90
43047;DHT22;28672;49.358;8.780;2022-09-13T04:52:49;12.20;99.90
43047;DHT22;28672;49.358;8.780;2022-09-13T04:55:15;12.20;99.90
43047;DHT22;28672;49.358;8.780;2022-09-13T04:57:41;12.20;99.90
43047;DHT22;28672;49.358;8.780;2022-09-13T05:00:07;12.20;99.90
43047;DHT22;28672;49.358;8.780;2022-09-13T05:02:33;12.20;99.90
43047;DHT22;28672;49.358;8.780;2022-09-13T05:04:59;12.20;99.90
43047;DHT22;28672;49.358;8.780;2022-09-13T05:07:24;12.20;99.90
43047;DHT22;28672;49.358;8.780;2022-09-13T05:09:50;12.20;99.90
43047;DHT22;28672;49.358;8.780;2022-09-13T05:12:16;12.20;99.90
43047;DHT22;28672;49.358;8.780;2022-09-13T05:14:41;12.30;99.90
43047;DHT22;28672;49.358;8.780;2022-09-13T05:17:07;12.30;99.90
43047;DHT22;28672;49.358;8.780;2022-09-13T05:19:33;12.40;99.90
43047;DHT22;28672;49.358;8.780;2022-09-13T05:22:00;12.30;99.90
43047;DHT22;28672;49.358;8.780;2022-09-13T05:24:25;12.40;99.90
43047;DHT22;28672;49.358;8.780;2022-09-13T05:26:51;12.40;99.90
43047;DHT22;28672;49.358;8.780;2022-09-13T05:29:17;12.40;99.90
43047;DHT22;28672;49.358;8.780;2022-09-13T05:31:43;12.50;99.90
43047;DHT22;28672;49.358;8.780;2022-09-13T05:34:11;12.50;99.90
43047;DHT22;28672;49.358;8.780;2022-09-13T05:36:38;12.50;99.90
43047;DHT22;28672;49.358;8.780;2022-09-13T05:39:04;12.60;99.90
43047;DHT22;28672;49.358;8.780;2022-09-13T05:41:30;12.70;99.90
43047;DHT22;28672;49.358;8.780;2022-09-13T05:43:56;12.70;99.90
43047;DHT22;28672;49.358;8.780;2022-09-13T05:46:22;12.80;99.90
43047;DHT22;28672;49.358;8.780;2022-09-13T05:48:48;12.80;99.90
43047;DHT22;28672;49.358;8.780;2022-09-13T05:51:20;12.80;99.90
43047;DHT22;28672;49.358;8.780;2022-09-13T05:53:47;12.80;99.90
43047;DHT22;28672;49.358;8.780;2022-09-13T05:56:15;12.80;99.90
43047;DHT22;28672;49.358;8.780;2022-09-13T05:58:43;12.90;99.90
43047;DHT22;28672;49.358;8.780;2022-09-13T06:01:10;13.00;99.90
43047;DHT22;28672;49.358;8.780;2022-09-13T06:03:36;13.00;99.90
43047;DHT22;28672;49.358;8.780;2022-09-13T06:06:03;13.10;99.90
43047;DHT22;28672;49.358;8.780;2022-09-13T06:08:30;13.20;99.90
43047;DHT22;28672;49.358;8.780;2022-09-13T06:10:58;13.20;99.90
43047;DHT22;28672;49.358;8.780;2022-09-13T06:13:24;13.20;99.90
43047;DHT22;28672;49.358;8.780;2022-09-13T06:15:51;13.30;99.90
43047;DHT22;28672;49.358;8.780;2022-09-13T06:18:17;13.30;99.90
43047;DHT22;28672;49.358;8.780;2022-09-13T06:20:43;13.50;99.90
43047;DHT22;28672;49.358;8.780;2022-09-13T06:23:08;13.50;99.90
43047;DHT22;28672;49.358;8.780;2022-09-13T06:25:34;13.50;99.90
43047;DHT22;28672;49.358;8.780;2022-09-13T06:27:59;13.70;99.90
43047;DHT22;28672;49.358;8.780;2022-09-13T06:30:25;13.80;99.90
43047;DHT22;28672;49.358;8.780;2022-09-13T06:32:50;13.90;99.90
43047;DHT22;28672;49.358;8.780;2022-09-13T06:35:16;14.00;99.90
43047;DHT22;28672;49.358;8.780;2022-09-13T06:37:42;14.10;99.90
43047;DHT22;28672;49.358;8.780;2022-09-13T06:40:08;14.20;99.90
43047;DHT22;28672;49.358;8.780;2022-09-13T06:42:34;14.20;99.90
43047;DHT22;28672;49.358;8.780;2022-09-13T06:45:00;14.40;99.90
43047;DHT22;28672;49.358;8.780;2022-09-13T06:47:25;14.40;99.90
43047;DHT22;28672;49.358;8.780;2022-09-13T06:49:51;14.50;99.90
43047;DHT22;28672;49.358;8.780;2022-09-13T06:52:16;14.50;99.90
43047;DHT22;28672;49.358;8.780;2022-09-13T06:54:42;14.50;99.90
43047;DHT22;28672;49.358;8.780;2022-09-13T06:57:08;14.50;99.90
43047;DHT22;28672;49.358;8.780;2022-09-13T06:59:34;14.60;99.90
43047;DHT22;28672;49.358;8.780;2022-09-13T07:01:59;14.60;99.90
43047;DHT22;28672;49.358;8.780;2022-09-13T07:04:25;14.60;99.90
43047;DHT22;28672;49.358;8.780;2022-09-13T07:06:50;14.70;99.90
43047;DHT22;28672;49.358;8.780;2022-09-13T07:09:20;14.80;99.90
43047;DHT22;28672;49.358;8.780;2022-09-13T07:11:47;14.90;99.90
43047;DHT22;28672;49.358;8.780;2022-09-13T07:14:21;15.00;99.90
43047;DHT22;28672;49.358;8.780;2022-09-13T07:16:48;15.00;99.90
43047;DHT22;28672;49.358;8.780;2022-09-13T07:19:14;15.00;99.90
43047;DHT22;28672;49.358;8.780;2022-09-13T07:21:40;15.10;99.90
43047;DHT22;28672;49.358;8.780;2022-09-13T07:24:06;15.20;99.90
43047;DHT22;28672;49.358;8.780;2022-09-13T07:26:32;15.20;99.90
43047;DHT22;28672;49.358;8.780;2022-09-13T07:29:00;15.30;99.90
43047;DHT22;28672;49.358;8.780;2022-09-13T07:31:37;15.30;99.90
43047;DHT22;28672;49.358;8.780;2022-09-13T07:34:06;15.30;99.90
43047;DHT22;28672;49.358;8.780;2022-09-13T07:36:33;15.40;99.90
43047;DHT22;28672;49.358;8.780;2022-09-13T07:39:00;15.60;99.90
43047;DHT22;28672;49.358;8.780;2022-09-13T07:41:27;15.70;99.90
43047;DHT22;28672;49.358;8.780;2022-09-13T07:43:54;15.90;99.90
43047;DHT22;28672;49.358;8.780;2022-09-13T07:46:25;16.00;99.90
43047;DHT22;28672;49.358;8.780;2022-09-13T07:48:53;16.10;99.90
43047;DHT22;28672;49.358;8.780;2022-09-13T07:51:30;16.20;99.90
43047;DHT22;28672;49.358;8.780;2022-09-13T07:54:01;16.40;99.90
43047;DHT22;28672;49.358;8.780;2022-09-13T07:56:30;16.50;99.90
43047;DHT22;28672;49.358;8.780;2022-09-13T07:58:58;16.40;99.90
43047;DHT22;28672;49.358;8.780;2022-09-13T08:01:27;16.50;99.90
43047;DHT22;28672;49.358;8.780;2022-09-13T08:03:58;16.80;99.90
43047;DHT22;28672;49.358;8.780;2022-09-13T08:06:25;16.90;99.90
43047;DHT22;28672;49.358;8.780;2022-09-13T08:08:51;16.90;99.90
43047;DHT22;28672;49.358;8.780;2022-09-13T08:11:19;17.20;99.90
43047;DHT22;28672;49.358;8.780;2022-09-13T08:13:46;17.50;99.90
43047;DHT22;28672;49.358;8.780;2022-09-13T08:16:13;17.60;99.90
43047;DHT22;28672;49.358;8.780;2022-09-13T08:18:49;17.90;99.90
43047;DHT22;28672;49.358;8.780;2022-09-13T08:21:15;18.00;99.90
43047;DHT22;28672;49.358;8.780;2022-09-13T08:23:41;18.20;99.90
43047;DHT22;28672;49.358;8.780;2022-09-13T08:26:07;18.20;99.90
43047;DHT22;28672;49.358;8.780;2022-09-13T08:28:34;18.10;99.90
43047;DHT22;28672;49.358;8.780;2022-09-13T08:31:11;18.10;99.90
43047;DHT22;28672;49.358;8.780;2022-09-13T08:33:38;18.30;99.90
43047;DHT22;28672;49.358;8.780;2022-09-13T08:36:04;18.40;99.90
43047;DHT22;28672;49.358;8.780;2022-09-13T08:38:31;18.50;99.90
43047;DHT22;28672;49.358;8.780;2022-09-13T08:41:03;18.80;99.90
43047;DHT22;28672;49.358;8.780;2022-09-13T08:43:42;18.80;99.90
43047;DHT22;28672;49.358;8.780;2022-09-13T08:46:23;18.90;99.90
43047;DHT22;28672;49.358;8.780;2022-09-13T08:48:52;18.90;99.90
43047;DHT22;28672;49.358;8.780;2022-09-13T08:54:14;19.30;99.90
43047;DHT22;28672;49.358;8.780;2022-09-13T09:05:00;20.00;99.90
43047;DHT22;28672;49.358;8.780;2022-09-13T09:07:40;20.00;99.90
43047;DHT22;28672;49.358;8.780;2022-09-13T09:10:23;20.20;99.90
43047;DHT22;28672;49.358;8.780;2022-09-13T09:15:23;20.50;99.90
43047;DHT22;28672;49.358;8.780;2022-09-13T09:20:41;20.60;99.90
43047;DHT22;28672;49.358;8.780;2022-09-13T09:23:53;20.90;99.90
43047;DHT22;28672;49.358;8.780;2022-09-13T09:26:23;21.20;99.90
43047;DHT22;28672;49.358;8.780;2022-09-13T09:28:57;21.50;99.90
43047;DHT22;28672;49.358;8.780;2022-09-13T09:36:35;22.10;99.90
43047;DHT22;28672;49.358;8.780;2022-09-13T09:39:04;21.90;99.90
43047;DHT22;28672;49.358;8.780;2022-09-13T09:41:31;21.90;99.90
43047;DHT22;28672;49.358;8.780;2022-09-13T09:46:54;21.70;99.90
43047;DHT22;28672;49.358;8.780;2022-09-13T09:49:36;22.00;99.90
43047;DHT22;28672;49.358;8.780;2022-09-13T09:52:27;22.40;99.90
43047;DHT22;28672;49.358;8.780;2022-09-13T09:54:58;22.70;99.90
43047;DHT22;28672;49.358;8.780;2022-09-13T09:57:48;23.10;99.90
43047;DHT22;28672;49.358;8.780;2022-09-13T10:00:15;23.30;99.90
43047;DHT22;28672;49.358;8.780;2022-09-13T10:02:44;23.00;99.90
43047;DHT22;28672;49.358;8.780;2022-09-13T10:05:11;23.20;99.90
43047;DHT22;28672;49.358;8.780;2022-09-13T10:07:37;23.10;99.90
43047;DHT22;28672;49.358;8.780;2022-09-13T10:10:07;23.20;99.90
43047;DHT22;28672;49.358;8.780;2022-09-13T10:12:44;23.20;99.90
43047;DHT22;28672;49.358;8.780;2022-09-13T10:15:16;23.00;99.90
43047;DHT22;28672;49.358;8.780;2022-09-13T10:17:42;23.30;99.90
43047;DHT22;28672;49.358;8.780;2022-09-13T10:22:38;23.30;99.90
43047;DHT22;28672;49.358;8.780;2022-09-13T10:25:24;23.30;99.90
43047;DHT22;28672;49.358;8.780;2022-09-13T10:27:54;23.40;99.90
43047;DHT22;28672;49.358;8.780;2022-09-13T10:30:34;23.40;99.90
43047;DHT22;28672;49.358;8.780;2022-09-13T10:33:03;23.60;99.90
43047;DHT22;28672;49.358;8.780;2022-09-13T10:35:29;23.70;99.90
43047;DHT22;28672;49.358;8.780;2022-09-13T10:37:55;23.40;99.90
43047;DHT22;28672;49.358;8.780;2022-09-13T10:42:59;23.40;99.90
43047;DHT22;28672;49.358;8.780;2022-09-13T10:45:28;23.30;99.90
43047;DHT22;28672;49.358;8.780;2022-09-13T10:48:05;23.70;99.90
43047;DHT22;28672;49.358;8.780;2022-09-13T10:50:35;23.90;99.90
43047;DHT22;28672;49.358;8.780;2022-09-13T10:53:01;24.20;99.90
43047;DHT22;28672;49.358;8.780;2022-09-13T10:55:32;24.70;99.90
43047;DHT22;28672;49.358;8.780;2022-09-13T11:06:01;24.20;99.90
43047;DHT22;28672;49.358;8.780;2022-09-13T11:14:18;24.30;99.90
43047;DHT22;28672;49.358;8.780;2022-09-13T11:17:24;24.50;99.90
43047;DHT22;28672;49.358;8.780;2022-09-13T11:20:17;24.50;99.90
43047;DHT22;28672;49.358;8.780;2022-09-13T11:28:40;24.50;99.90
43047;DHT22;28672;49.358;8.780;2022-09-13T11:31:20;24.80;99.90
43047;DHT22;28672;49.358;8.780;2022-09-13T11:34:10;24.60;99.90
43047;DHT22;28672;49.358;8.780;2022-09-13T11:39:35;24.20;99.90
43047;DHT22;28672;49.358;8.780;2022-09-13T11:50:48;23.70;99.90
43047;DHT22;28672;49.358;8.780;2022-09-13T11:56:05;23.60;99.90
43047;DHT22;28672;49.358;8.780;2022-09-13T11:58:41;23.40;99.90
43047;DHT22;28672;49.358;8.780;2022-09-13T12:01:11;23.70;99.90
43047;DHT22;28672;49.358;8.780;2022-09-13T12:03:57;23.70;99.90
43047;DHT22;28672;49.358;8.780;2022-09-13T12:06:28;23.80;99.90
43047;DHT22;28672;49.358;8.780;2022-09-13T12:11:51;24.10;99.90
43047;DHT22;28672;49.358;8.780;2022-09-13T12:14:21;24.10;99.90
43047;DHT22;28672;49.358;8.780;2022-09-13T12:16:51;24.20;99.90
43047;DHT22;28672;49.358;8.780;2022-09-13T12:19:24;24.00;99.90
43047;DHT22;28672;49.358;8.780;2022-09-13T12:21:53;24.10;99.90
43047;DHT22;28672;49.358;8.780;2022-09-13T12:27:03;24.40;99.90
43047;DHT22;28672;49.358;8.780;2022-09-13T12:29:37;24.40;99.90
43047;DHT22;28672;49.358;8.780;2022-09-13T12:32:06;24.80;99.90
43047;DHT22;28672;49.358;8.780;2022-09-13T12:34:47;24.90;99.90
43047;DHT22;28672;49.358;8.780;2022-09-13T12:40:23;24.70;99.90
43047;DHT22;28672;49.358;8.780;2022-09-13T12:45:49;24.60;99.90
43047;DHT22;28672;49.358;8.780;2022-09-13T12:51:06;24.40;99.90
43047;DHT22;28672;49.358;8.780;2022-09-13T12:56:36;24.40;99.90
43047;DHT22;28672;49.358;8.780;2022-09-13T13:02:27;24.30;99.90
43047;DHT22;28672;49.358;8.780;2022-09-13T13:04:58;24.40;99.90
43047;DHT22;28672;49.358;8.780;2022-09-13T13:07:24;24.40;99.90
43047;DHT22;28672;49.358;8.780;2022-09-13T13:09:53;24.50;99.90
43047;DHT22;28672;49.358;8.780;2022-09-13T13:12:31;24.40;99.90
43047;DHT22;28672;49.358;8.780;2022-09-13T13:14:59;24.40;99.90
43047;DHT22;28672;49.358;8.780;2022-09-13T13:17:48;24.40;99.90
43047;DHT22;28672;49.358;8.780;2022-09-13T13:20:39;24.30;99.90
43047;DHT22;28672;49.358;8.780;2022-09-13T13:23:30;24.30;99.90
43047;DHT22;28672;49.358;8.780;2022-09-13T13:41:52;25.00;99.90
43047;DHT22;28672;49.358;8.780;2022-09-13T13:46:45;24.90;99.90
43047;DHT22;28672;49.358;8.780;2022-09-13T14:00:17;25.70;99.90
43047;DHT22;28672;49.358;8.780;2022-09-13T14:06:00;25.70;99.90
43047;DHT22;28672;49.358;8.780;2022-09-13T14:08:59;25.70;99.90
43047;DHT22;28672;49.358;8.780;2022-09-13T14:11:56;25.70;99.90
43047;DHT22;28672;49.358;8.780;2022-09-13T14:14:46;25.40;99.90
43047;DHT22;28672;49.358;8.780;2022-09-13T14:17:25;25.40;99.90
43047;DHT22;28672;49.358;8.780;2022-09-13T14:20:16;25.30;99.90
43047;DHT22;28672;49.358;8.780;2022-09-13T14:22:42;25.20;99.90
43047;DHT22;28672;49.358;8.780;2022-09-13T14:25:22;25.20;99.90
43047;DHT22;28672;49.358;8.780;2022-09-13T14:27:49;25.30;99.90
43047;DHT22;28672;49.358;8.780;2022-09-13T14:30:22;25.30;99.90
43047;DHT22;28672;49.358;8.780;2022-09-13T14:32:51;25.40;99.90
43047;DHT22;28672;49.358;8.780;2022-09-13T14:38:24;25.40;99.90
43047;DHT22;28672;49.358;8.780;2022-09-13T14:40:59;25.20;99.90
43047;DHT22;28672;49.358;8.780;2022-09-13T14:43:27;25.20;99.90
43047;DHT22;28672;49.358;8.780;2022-09-13T14:46:11;25.10;99.90
43047;DHT22;28672;49.358;8.780;2022-09-13T14:48:56;25.10;99.90
43047;DHT22;28672;49.358;8.780;2022-09-13T14:51:30;25.00;99.90
43047;DHT22;28672;49.358;8.780;2022-09-13T14:54:09;24.70;99.90
43047;DHT22;28672;49.358;8.780;2022-09-13T14:56:46;24.60;99.90
43047;DHT22;28672;49.358;8.780;2022-09-13T14:59:55;24.50;99.90
43047;DHT22;28672;49.358;8.780;2022-09-13T15:02:26;24.60;99.90
43047;DHT22;28672;49.358;8.780;2022-09-13T15:04:57;24.50;99.90
43047;DHT22;28672;49.358;8.780;2022-09-13T15:07:30;24.40;99.90
43047;DHT22;28672;49.358;8.780;2022-09-13T15:15:46;24.20;99.90
43047;DHT22;28672;49.358;8.780;2022-09-13T15:20:54;24.30;99.90
43047;DHT22;28672;49.358;8.780;2022-09-13T15:23:41;24.20;99.90
43047;DHT22;28672;49.358;8.780;2022-09-13T15:26:10;24.20;99.90
43047;DHT22;28672;49.358;8.780;2022-09-13T15:31:09;24.10;99.90
43047;DHT22;28672;49.358;8.780;2022-09-13T15:33:36;24.10;99.90
43047;DHT22;28672;49.358;8.780;2022-09-13T15:39:02;24.10;99.90
43047;DHT22;28672;49.358;8.780;2022-09-13T15:41:33;24.10;99.90
43047;DHT22;28672;49.358;8.780;2022-09-13T15:44:00;24.10;99.90
43047;DHT22;28672;49.358;8.780;2022-09-13T15:46:27;24.10;99.90
43047;DHT22;28672;49.358;8.780;2022-09-13T15:48:55;24.00;99.90
43047;DHT22;28672;49.358;8.780;2022-09-13T15:51:21;24.00;99.90
43047;DHT22;28672;49.358;8.780;2022-09-13T15:53:48;24.10;99.90
43047;DHT22;28672;49.358;8.780;2022-09-13T15:56:25;24.10;99.90
43047;DHT22;28672;49.358;8.780;2022-09-13T15:58:52;24.20;99.90
43047;DHT22;28672;49.358;8.780;2022-09-13T16:01:17;24.20;99.90
43047;DHT22;28672;49.358;8.780;2022-09-13T16:03:44;24.10;99.90
43047;DHT22;28672;49.358;8.780;2022-09-13T16:09:26;24.20;99.90
43047;DHT22;28672;49.358;8.780;2022-09-13T16:15:40;24.30;99.90
43047;DHT22;28672;49.358;8.780;2022-09-13T16:18:12;24.20;99.90
43047;DHT22;28672;49.358;8.780;2022-09-13T16:20:39;24.10;99.90
43047;DHT22;28672;49.358;8.780;2022-09-13T16:23:08;23.90;99.90
43047;DHT22;28672;49.358;8.780;2022-09-13T16:25:37;23.80;99.90
43047;DHT22;28672;49.358;8.780;2022-09-13T16:28:04;23.60;99.90
43047;DHT22;28672;49.358;8.780;2022-09-13T16:30:30;23.40;99.90
43047;DHT22;28672;49.358;8.780;2022-09-13T16:32:57;23.30;99.90
43047;DHT22;28672;49.358;8.780;2022-09-13T16:35:26;23.20;99.90
43047;DHT22;28672;49.358;8.780;2022-09-13T16:37:52;23.10;99.90
43047;DHT22;28672;49.358;8.780;2022-09-13T16:40:19;23.10;99.90
43047;DHT22;28672;49.358;8.780;2022-09-13T16:42:45;23.00;99.90
43047;DHT22;28672;49.358;8.780;2022-09-13T16:45:11;22.90;99.90
43047;DHT22;28672;49.358;8.780;2022-09-13T16:47:37;22.80;99.90
43047;DHT22;28672;49.358;8.780;2022-09-13T16:50:04;22.70;99.90
43047;DHT22;28672;49.358;8.780;2022-09-13T16:52:31;22.60;99.90
43047;DHT22;28672;49.358;8.780;2022-09-13T16:54:57;22.50;99.90
43047;DHT22;28672;49.358;8.780;2022-09-13T16:57:23;22.40;99.90
43047;DHT22;28672;49.358;8.780;2022-09-13T16:59:50;22.40;99.90
43047;DHT22;28672;49.358;8.780;2022-09-13T17:02:18;22.30;99.90
43047;DHT22;28672;49.358;8.780;2022-09-13T17:04:44;22.20;99.90
43047;DHT22;28672;49.358;8.780;2022-09-13T17:07:10;22.10;99.90
43047;DHT22;28672;49.358;8.780;2022-09-13T17:09:36;22.00;99.90
43047;DHT22;28672;49.358;8.780;2022-09-13T17:12:07;22.00;99.90
43047;DHT22;28672;49.358;8.780;2022-09-13T17:14:33;21.80;99.90
43047;DHT22;28672;49.358;8.780;2022-09-13T17:16:59;21.80;99.90
43047;DHT22;28672;49.358;8.780;2022-09-13T17:19:28;21.70;99.90
43047;DHT22;28672;49.358;8.780;2022-09-13T17:22:01;21.60;99.90
43047;DHT22;28672;49.358;8.780;2022-09-13T17:24:28;21.50;99.90
43047;DHT22;28672;49.358;8.780;2022-09-13T17:26:55;21.50;99.90
43047;DHT22;28672;49.358;8.780;2022-09-13T17:29:24;21.50;99.90
43047;DHT22;28672;49.358;8.780;2022-09-13T17:31:51;21.50;99.90
43047;DHT22;28672;49.358;8.780;2022-09-13T17:34:17;21.40;99.90
43047;DHT22;28672;49.358;8.780;2022-09-13T17:36:43;21.30;99.90
43047;DHT22;28672;49.358;8.780;2022-09-13T17:39:10;21.20;99.90
43047;DHT22;28672;49.358;8.780;2022-09-13T17:41:36;21.20;99.90
43047;DHT22;28672;49.358;8.780;2022-09-13T17:44:02;21.10;99.90
43047;DHT22;28672;49.358;8.780;2022-09-13T17:46:28;21.10;99.90
43047;DHT22;28672;49.358;8.780;2022-09-13T17:48:58;21.00;99.90
43047;DHT22;28672;49.358;8.780;2022-09-13T17:51:27;20.80;99.90
43047;DHT22;28672;49.358;8.780;2022-09-13T17:54:00;20.80;99.90
43047;DHT22;28672;49.358;8.780;2022-09-13T17:56:38;20.70;99.90
43047;DHT22;28672;49.358;8.780;2022-09-13T17:59:06;20.60;99.90
43047;DHT22;28672;49.358;8.780;2022-09-13T18:01:43;20.50;99.90
43047;DHT22;28672;49.358;8.780;2022-09-13T18:04:10;20.50;99.90
43047;DHT22;28672;49.358;8.780;2022-09-13T18:06:36;20.40;99.90
43047;DHT22;28672;49.358;8.780;2022-09-13T18:09:05;20.30;99.90
43047;DHT22;28672;49.358;8.780;2022-09-13T18:11:31;20.30;99.90
43047;DHT22;28672;49.358;8.780;2022-09-13T18:13:56;20.30;99.90
43047;DHT22;28672;49.358;8.780;2022-09-13T18:16:25;20.20;99.90
43047;DHT22;28672;49.358;8.780;2022-09-13T18:18:51;20.20;99.90
43047;DHT22;28672;49.358;8.780;2022-09-13T18:21:19;20.10;99.90
43047;DHT22;28672;49.358;8.780;2022-09-13T18:23:47;20.10;99.90
43047;DHT22;28672;49.358;8.780;2022-09-13T18:26:15;20.10;99.90
43047;DHT22;28672;49.358;8.780;2022-09-13T18:28:41;20.00;99.90
43047;DHT22;28672;49.358;8.780;2022-09-13T18:31:13;20.00;99.90
43047;DHT22;28672;49.358;8.780;2022-09-13T18:33:39;20.00;99.90
43047;DHT22;28672;49.358;8.780;2022-09-13T18:36:07;19.80;99.90
43047;DHT22;28672;49.358;8.780;2022-09-13T18:38:38;19.70;99.90
43047;DHT22;28672;49.358;8.780;2022-09-13T18:41:12;19.70;99.90
43047;DHT22;28672;49.358;8.780;2022-09-13T18:43:39;19.60;99.90
43047;DHT22;28672;49.358;8.780;2022-09-13T18:46:10;19.50;99.90
43047;DHT22;28672;49.358;8.780;2022-09-13T18:48:37;19.50;99.90
43047;DHT22;28672;49.358;8.780;2022-09-13T18:51:04;19.50;99.90
43047;DHT22;28672;49.358;8.780;2022-09-13T18:53:32;19.40;99.90
43047;DHT22;28672;49.358;8.780;2022-09-13T18:56:02;19.40;99.90